»·PEaware :: N2MA KSNA-KSFO

N2MA :: KSNA-KSFO

FLIGHT INFORMATION

Flight Status: Arrived
Operator: Privately registered:
United States
More flights under this callsign
Pilot: Anonymous 13363 (13363)
Aircraft: Unknown
(TBM9)
More flights by this aircraft type
Origin: KSNA John Wayne-Orange Co
United States
Destination: KSFO San Francisco Intl
United States
More flights between these airports :: More routes between these airports
Route: HHERO2 IKAYE RIZIN SPLNT STOKD SERFR SERFR2
File this flight plan on PilotEdge
Remarks:
Altitude:
(Current/Filed)
30,000ft
Speed:
(Current/Filed)
470kts
Departed: 07-Jan-18 11:15 PM
Arrived: 08-Jan-18 01:01 AM
Distance/Time
Traveled:
323nm/1:46
Distance/Time
To Go:
Arrived

Flight Plot

Page will automatically refresh every two minutes.

Flight plan parsing failed; only flown route is shown


Map Options




Map Legend


Flown Route
Filed Route
Departure Airport
Arrival Airport
Navaid (VOR, NDB)
Fix

Horizontal Profiles

Position Reports

Time Latitude Longitude Heading Altitude Ground
Speed
07-Jan-18 23:20 33.572149 -118.150102 275 20693ft 156kts
07-Jan-18 23:21 33.597374 -118.190484 301 22566ft 175kts
07-Jan-18 23:22 33.631728 -118.232786 300 24672ft 180kts
07-Jan-18 23:23 33.666808 -118.276010 298 26791ft 184kts
07-Jan-18 23:24 33.700517 -118.317565 297 28745ft 186kts
07-Jan-18 23:25 33.737105 -118.363005 298 30148ft 212kts
07-Jan-18 23:26 33.784136 -118.421677 301 30094ft 262kts
07-Jan-18 23:27 33.835138 -118.484673 302 30084ft 264kts
07-Jan-18 23:28 33.886342 -118.548025 302 30087ft 265kts
07-Jan-18 23:29 33.937617 -118.611587 302 30090ft 265kts
07-Jan-18 23:30 33.981630 -118.667567 315 30096ft 265kts
07-Jan-18 23:31 34.030366 -118.726956 307 30034ft 247kts
07-Jan-18 23:32 34.078217 -118.785765 301 30047ft 251kts
07-Jan-18 23:33 34.123240 -118.842195 301 30048ft 260kts
07-Jan-18 23:34 34.173971 -118.905784 301 30047ft 265kts
07-Jan-18 23:35 34.225030 -118.969850 301 30046ft 267kts
07-Jan-18 23:36 34.276408 -119.034409 301 30046ft 267kts
07-Jan-18 23:37 34.327800 -119.099092 301 30045ft 268kts
07-Jan-18 23:38 34.370711 -119.153183 301 30045ft 268kts
07-Jan-18 23:39 34.421913 -119.217830 301 30065ft 268kts
07-Jan-18 23:40 34.473480 -119.283079 301 30045ft 269kts
07-Jan-18 23:41 34.533192 -119.358771 301 30045ft 269kts
07-Jan-18 23:42 34.576076 -119.413235 301 30045ft 269kts
07-Jan-18 23:43 34.627632 -119.478826 301 30046ft 269kts
07-Jan-18 23:44 34.678435 -119.543585 301 30045ft 270kts
07-Jan-18 23:45 34.730046 -119.609493 301 30045ft 270kts
07-Jan-18 23:46 34.780977 -119.674659 300 30056ft 270kts
07-Jan-18 23:47 34.832747 -119.741023 300 30055ft 271kts
07-Jan-18 23:48 34.884671 -119.807713 300 30055ft 272kts
07-Jan-18 23:49 34.936874 -119.874890 300 30055ft 273kts
07-Jan-18 23:50 34.988645 -119.941643 300 30054ft 273kts
07-Jan-18 23:51 35.040499 -120.008622 300 30081ft 272kts
07-Jan-18 23:52 35.092515 -120.075971 300 30082ft 273kts
07-Jan-18 23:53 35.142591 -120.140915 300 30069ft 272kts
07-Jan-18 23:54 35.192658 -120.205971 300 30068ft 271kts
07-Jan-18 23:55 35.242691 -120.271123 299 30042ft 271kts
07-Jan-18 23:56 35.294236 -120.337900 296 30041ft 269kts
07-Jan-18 23:57 35.344918 -120.404255 296 30052ft 268kts
07-Jan-18 23:58 35.395667 -120.470799 296 30041ft 267kts
07-Jan-18 23:59 35.445825 -120.536685 296 30068ft 266kts
08-Jan-18 00:00 35.496257 -120.603071 296 30069ft 267kts
08-Jan-18 00:01 35.544942 -120.667280 296 30082ft 267kts
08-Jan-18 00:02 35.595754 -120.734424 296 30080ft 269kts
08-Jan-18 00:03 35.646568 -120.801677 296 30080ft 270kts
08-Jan-18 00:04 35.697725 -120.869543 296 30080ft 272kts
08-Jan-18 00:05 35.749172 -120.937853 296 30080ft 272kts
08-Jan-18 00:06 35.800259 -121.005848 296 30080ft 272kts
08-Jan-18 00:07 35.851114 -121.073624 296 29399ft 264kts
08-Jan-18 00:08 35.900062 -121.139076 296 28419ft 258kts
08-Jan-18 00:09 35.948585 -121.204142 296 27449ft 257kts
08-Jan-18 00:10 35.996813 -121.268943 297 26490ft 257kts
08-Jan-18 00:11 36.044954 -121.333745 298 25540ft 258kts
08-Jan-18 00:12 36.101089 -121.389743 315 24604ft 275kts
08-Jan-18 00:13 36.143911 -121.423205 315 23879ft 264kts
08-Jan-18 00:14 36.203888 -121.470190 315 22813ft 251kts
08-Jan-18 00:15 36.261767 -121.515630 316 21772ft 245kts
08-Jan-18 00:16 36.318308 -121.560093 317 20743ft 240kts
08-Jan-18 00:17 36.374068 -121.603996 318 19721ft 237kts
08-Jan-18 00:18 36.428430 -121.646764 318 19020ft 220kts
08-Jan-18 00:19 36.476095 -121.684120 316 19035ft 191kts
08-Jan-18 00:20 36.518093 -121.717234 315 19025ft 177kts
08-Jan-18 00:21 36.566103 -121.755675 318 18112ft 228kts
08-Jan-18 00:22 36.622005 -121.800058 320 17198ft 246kts
08-Jan-18 00:23 36.680397 -121.846371 320 16239ft 252kts
08-Jan-18 00:24 36.739939 -121.892827 332 15253ft 258kts
08-Jan-18 00:25 36.807788 -121.911185 9 15020ft 246kts
08-Jan-18 00:26 36.815001 -121.849301 132 15064ft 208kts
08-Jan-18 00:27 36.781934 -121.790979 132 15050ft 206kts
08-Jan-18 00:28 36.748005 -121.731353 131 14377ft 230kts
08-Jan-18 00:29 36.710238 -121.665025 130 12438ft 230kts
08-Jan-18 00:30 36.674340 -121.601845 129 10446ft 220kts
08-Jan-18 00:31 36.639315 -121.540318 128 8454ft 218kts
08-Jan-18 00:32 36.604816 -121.480144 124 6840ft 207kts
08-Jan-18 00:33 36.572170 -121.422689 124 5333ft 201kts
08-Jan-18 00:34 36.540282 -121.366593 124 4004ft 189kts
08-Jan-18 00:35 36.510626 -121.314452 125 4061ft 199kts
08-Jan-18 00:36 36.477801 -121.256836 125 4050ft 208kts
08-Jan-18 00:37 36.445283 -121.197272 104 4038ft 210kts
08-Jan-18 00:38 36.484024 -121.178590 320 4068ft 208kts
08-Jan-18 00:39 36.528877 -121.224009 320 4048ft 210kts
08-Jan-18 00:40 36.574323 -121.269773 321 4048ft 210kts
08-Jan-18 00:41 36.619600 -121.315144 321 4048ft 210kts
08-Jan-18 00:42 36.665068 -121.360531 321 4048ft 210kts
08-Jan-18 00:43 36.710672 -121.405922 321 4048ft 210kts
08-Jan-18 00:44 36.756189 -121.451123 321 4048ft 210kts
08-Jan-18 00:45 36.801643 -121.496191 321 4046ft 207kts
08-Jan-18 00:46 36.846742 -121.540864 321 4050ft 209kts
08-Jan-18 00:47 36.892711 -121.586358 321 4049ft 212kts
08-Jan-18 00:48 36.939052 -121.632205 321 4048ft 213kts
08-Jan-18 00:49 36.984437 -121.677111 321 4424ft 201kts
08-Jan-18 00:50 37.028063 -121.720298 321 4776ft 201kts
08-Jan-18 00:51 37.072201 -121.764018 321 5086ft 203kts
08-Jan-18 00:52 37.115040 -121.806532 321 5385ft 202kts
08-Jan-18 00:53 37.158455 -121.849618 322 5671ft 201kts
08-Jan-18 00:54 37.201041 -121.894438 318 5864ft 201kts
08-Jan-18 00:55 37.241696 -121.940852 317 5861ft 203kts
08-Jan-18 00:56 37.280893 -121.985718 317 5863ft 204kts
08-Jan-18 00:57 37.318849 -122.029211 317 5865ft 205kts
08-Jan-18 00:58 37.356522 -122.072476 317 5831ft 190kts
08-Jan-18 00:59 37.393640 -122.115190 317 5813ft 186kts
08-Jan-18 01:00 37.431134 -122.158408 317 5809ft 184kts
08-Jan-18 01:01 37.469189 -122.202336 317 5602ft 193kts
08-Jan-18 01:02 37.508837 -122.245878 328 4864ft 193kts
08-Jan-18 01:03 37.550134 -122.279377 326 3795ft 170kts
08-Jan-18 01:04 37.585860 -122.312469 321 2184ft 149kts
08-Jan-18 01:05 37.608645 -122.345839 291 754ft 113kts
08-Jan-18 01:06 37.620632 -122.374230 299 15ft 51kts
08-Jan-18 01:07 37.625601 -122.382233 302 15ft 18kts
08-Jan-18 01:08 37.627624 -122.383535 298 15ft 0kts
08-Jan-18 01:09 37.627623 -122.383535 297 15ft 0kts

Navigation Log

Ident Type
Flight plan parsing failed, navigation log unavailable